KBRL/BRL METAR and TAF weather

Enter ICAO airport designator
Station Type Date Time Source
KBRL METAR 2019/06/26 17:53 UTC NOAA

KBRL 261753Z AUTO 24005KT 10SM CLR 28/21 A3004 RMK AO2 SLP168 T02830206 10289 20194 58005


Station Type Date Time Source
KBRL Decoded METAR 2019/06/26 17:53 UTC NOAA

BURLINGTON REGIONAL AIRPORT, IA, United States (KBRL) 40-46N 91-08W 211M
Jun 26, 2019 - 01:53 PM EDT / 2019.06.26 1753 UTC
Wind: from the WSW (240 degrees) at 6 MPH (5 KT):0
Visibility: 10 mile(s):0
Sky conditions: clear
Temperature: 82.9 F (28.3 C)
Dew Point: 69.1 F (20.6 C)
Relative Humidity: 63%
Pressure (altimeter): 30.04 in. Hg (1017 hPa)
Pressure tendency: 0.01 inches (0.5 hPa) lower than three hours ago
ob: KBRL 261753Z AUTO 24005KT 10SM CLR 28/21 A3004 RMK AO2 SLP168 T02830206 10289 20194 58005
cycle: 18

Station Type Date Time Source
KBRL TAF 2019/06/26 18:42 UTC NOAA

TAF KBRL 261741Z 2618/2718 20004KT P6SM SCT040 BKN250
TEMPO 2709/2712 4SM BR
FM271500 18011KT P6SM BKN120

Example: see airport list